createdAt,value
2023-11-24T00:04:38.708Z,12.07
2023-11-24T00:09:41.264Z,6.22
2023-11-24T00:14:43.543Z,8.13
2023-11-24T00:19:45.653Z,11.23
2023-11-24T00:24:53.283Z,8.73
2023-11-24T00:29:55.673Z,8.77
2023-11-24T00:34:57.799Z,8.80
2023-11-24T00:39:59.965Z,10.68
2023-11-24T00:45:03.908Z,10.77
2023-11-24T00:50:07.383Z,8.50
2023-11-24T00:55:09.744Z,10.55
2023-11-24T01:00:12.286Z,11.85
2023-11-24T01:05:14.573Z,8.88
2023-11-24T01:10:16.711Z,9.73
2023-11-24T01:15:19.321Z,7.40
2023-11-24T01:20:22.942Z,9.27
2023-11-24T01:25:25.140Z,10.43
2023-11-24T01:30:28.021Z,7.80
2023-11-24T01:35:30.749Z,10.40
2023-11-24T01:40:35.312Z,9.77
2023-11-24T01:45:37.579Z,10.25
2023-11-24T01:50:40.031Z,9.95
2023-11-24T01:55:43.075Z,14.48
2023-11-24T02:00:45.983Z,10.20
2023-11-24T02:05:48.804Z,9.38
2023-11-24T02:10:50.981Z,12.38
2023-11-24T02:15:57.359Z,10.52
2023-11-24T02:21:02.113Z,11.75
2023-11-24T02:26:04.967Z,12.85
2023-11-24T02:31:09.121Z,11.13
2023-11-24T02:36:18.777Z,13.10
2023-11-24T02:41:24.323Z,17.20
2023-11-24T02:46:26.488Z,14.13
2023-11-24T02:51:29.893Z,15.70
2023-11-24T02:56:32.269Z,17.90
2023-11-24T03:01:34.586Z,16.45
2023-11-24T03:06:43.802Z,16.85
2023-11-24T03:11:45.914Z,12.50
2023-11-24T03:16:52.865Z,16.10
2023-11-24T03:21:55.143Z,9.85
2023-11-24T03:26:57.304Z,10.90
2023-11-24T03:31:59.481Z,12.95
2023-11-24T03:37:01.726Z,13.68
2023-11-24T03:42:04.154Z,17.48
2023-11-24T03:47:07.210Z,13.00
2023-11-24T03:52:09.440Z,15.63
2023-11-24T03:57:11.687Z,13.68
2023-11-24T04:02:14.809Z,11.77
2023-11-24T04:07:17.086Z,14.77
2023-11-24T04:12:19.178Z,12.73
2023-11-24T04:17:21.472Z,11.13
2023-11-24T04:22:23.616Z,13.68
2023-11-24T04:27:25.918Z,13.85
2023-11-24T04:32:28.116Z,16.23
2023-11-24T04:37:30.234Z,14.18
2023-11-24T04:42:32.556Z,15.50
2023-11-24T04:47:35.512Z,15.07
2023-11-24T04:52:37.785Z,13.93
2023-11-24T04:57:40.486Z,14.25
2023-11-24T05:02:42.757Z,13.05
2023-11-24T05:07:45.162Z,14.13
2023-11-24T05:12:47.421Z,27.13
2023-11-24T05:17:49.732Z,19.77
2023-11-24T05:22:51.958Z,21.25
2023-11-24T05:27:54.134Z,21.98
2023-11-24T05:32:56.387Z,20.45
2023-11-24T05:38:00.439Z,20.55
2023-11-24T05:43:02.965Z,17.42
2023-11-24T05:48:05.491Z,25.23
2023-11-24T05:53:07.701Z,23.08
2023-11-24T05:58:10.041Z,25.08
2023-11-24T06:03:12.376Z,24.48
2023-11-24T06:08:14.593Z,20.08
2023-11-24T06:13:17.269Z,17.67
2023-11-24T06:18:19.729Z,20.10
2023-11-24T06:23:22.540Z,19.92
2023-11-24T06:28:26.134Z,21.17
2023-11-24T06:33:28.778Z,22.00
2023-11-24T06:38:31.148Z,21.10
2023-11-24T06:43:33.421Z,21.67
2023-11-24T06:48:39.513Z,19.92
2023-11-24T06:53:41.757Z,22.40
2023-11-24T06:58:43.844Z,22.52
2023-11-24T07:03:46.771Z,21.25
2023-11-24T07:08:49.044Z,20.02
2023-11-24T07:13:52.816Z,22.02
2023-11-24T07:18:55.272Z,20.45
2023-11-24T07:23:57.786Z,19.92
2023-11-24T07:29:00.035Z,26.63
2023-11-24T07:34:02.353Z,23.25
2023-11-24T07:39:04.922Z,18.67
2023-11-24T07:44:07.239Z,21.02
2023-11-24T07:49:09.438Z,21.23
2023-11-24T07:54:11.693Z,21.60
2023-11-24T07:59:13.910Z,20.55
2023-11-24T08:04:16.132Z,27.27
2023-11-24T08:09:18.553Z,24.02
2023-11-24T08:14:25.388Z,21.55
2023-11-24T08:19:28.340Z,17.70
2023-11-24T08:24:30.594Z,20.42
2023-11-24T08:29:32.731Z,19.63
2023-11-24T08:34:34.888Z,25.80
2023-11-24T08:39:37.078Z,19.77
2023-11-24T08:44:40.431Z,21.05
2023-11-24T08:49:42.817Z,20.73
2023-11-24T08:54:44.979Z,18.88
2023-11-24T08:59:47.149Z,19.20
2023-11-24T09:04:50.719Z,20.23
2023-11-24T09:09:53.459Z,20.60
2023-11-24T09:14:55.766Z,22.45
2023-11-24T09:19:58.473Z,20.05
2023-11-24T09:25:03.524Z,19.10
2023-11-24T09:30:09.946Z,19.10
2023-11-24T09:35:12.514Z,19.55
2023-11-24T09:40:18.125Z,21.70
2023-11-24T09:45:23.907Z,21.25
2023-11-24T09:50:28.201Z,19.50
2023-11-24T09:55:30.812Z,18.30
2023-11-24T10:00:33.196Z,21.73
2023-11-24T10:05:35.346Z,17.92
2023-11-24T10:10:37.473Z,18.75
2023-11-24T10:15:39.600Z,18.67
2023-11-24T10:20:42.641Z,18.33
2023-11-24T10:25:44.792Z,16.95
2023-11-24T10:30:47.118Z,17.88
2023-11-24T10:35:50.666Z,18.63
2023-11-24T10:40:52.919Z,18.55
2023-11-24T10:45:57.892Z,17.20
2023-11-24T10:51:05.940Z,19.50
2023-11-24T10:56:09.761Z,19.23
2023-11-24T11:01:14.342Z,20.90
2023-11-24T11:06:35.123Z,18.27
2023-11-24T11:11:50.773Z,19.50
2023-11-24T11:16:53.650Z,20.35
2023-11-24T11:21:57.728Z,26.10
2023-11-24T11:27:00.006Z,21.58
2023-11-24T11:32:03.742Z,25.67
2023-11-24T11:37:08.467Z,19.05
2023-11-24T11:42:12.190Z,17.23
2023-11-24T11:47:28.424Z,20.20
2023-11-24T11:52:32.624Z,19.35
2023-11-24T11:57:36.058Z,19.10
2023-11-24T12:02:39.400Z,24.08
2023-11-24T12:07:45.097Z,21.98
2023-11-24T12:12:47.297Z,16.95
2023-11-24T12:17:49.588Z,18.67
2023-11-24T12:22:54.433Z,17.13
2023-11-24T12:28:00.536Z,17.08
2023-11-24T12:33:02.692Z,19.15
2023-11-24T12:38:06.026Z,15.30
2023-11-24T12:43:13.277Z,18.08
2023-11-24T12:48:25.535Z,20.15
2023-11-24T12:53:29.936Z,20.05
2023-11-24T12:58:32.055Z,17.67
2023-11-24T13:03:34.150Z,17.42
2023-11-24T13:08:38.195Z,16.63
2023-11-24T13:13:40.265Z,31.35
2023-11-24T13:18:42.425Z,17.27
2023-11-24T13:23:44.800Z,18.38
2023-11-24T13:28:47.026Z,21.15
2023-11-24T13:33:49.127Z,16.95
2023-11-24T13:38:55.134Z,18.98
2023-11-24T13:43:57.571Z,16.77
2023-11-24T13:49:00.525Z,18.60
2023-11-24T13:54:05.202Z,20.08
2023-11-24T13:59:13.177Z,18.63
2023-11-24T14:04:15.926Z,17.80
2023-11-24T14:09:19.066Z,24.55
2023-11-24T14:14:21.495Z,18.33
2023-11-24T14:19:23.740Z,20.90
2023-11-24T14:24:25.958Z,15.50
2023-11-24T14:29:29.648Z,22.15
2023-11-24T14:34:31.925Z,19.55
2023-11-24T14:39:34.908Z,26.77
2023-11-24T14:44:40.706Z,22.23
2023-11-24T14:49:42.834Z,22.45
2023-11-24T14:54:45.076Z,23.42
2023-11-24T14:59:49.642Z,21.58
2023-11-24T15:04:51.756Z,16.35
2023-11-24T15:09:53.973Z,20.83
2023-11-24T15:15:00.415Z,20.67
2023-11-24T15:20:06.151Z,21.90
2023-11-24T15:25:08.712Z,21.75
2023-11-24T15:30:13.242Z,21.25
2023-11-24T15:35:15.367Z,22.15
2023-11-24T15:40:21.976Z,21.65
2023-11-24T15:45:25.164Z,22.27
2023-11-24T15:50:30.728Z,21.38
2023-11-24T15:55:34.175Z,22.55
2023-11-24T16:00:41.137Z,19.92
2023-11-24T16:05:50.680Z,24.52
2023-11-24T16:10:58.957Z,25.27
2023-11-24T16:16:01.295Z,23.95
2023-11-24T16:21:03.782Z,22.88
2023-11-24T16:26:06.092Z,22.35
2023-11-24T16:31:08.514Z,23.85
2023-11-24T16:36:12.373Z,27.10
2023-11-24T16:41:15.911Z,27.95
2023-11-24T16:46:19.038Z,25.67
2023-11-24T16:51:21.264Z,23.05
2023-11-24T16:56:25.252Z,36.33
2023-11-24T17:01:27.567Z,26.42
2023-11-24T17:06:29.818Z,24.65
2023-11-24T17:11:32.014Z,21.98
2023-11-24T17:16:37.109Z,24.42
2023-11-24T17:21:45.676Z,23.83
2023-11-24T17:26:47.982Z,24.23
2023-11-24T17:31:54.087Z,24.30
2023-11-24T17:36:56.229Z,23.17
2023-11-24T17:41:58.436Z,23.58
2023-11-24T17:47:00.822Z,25.80
2023-11-24T17:52:03.401Z,25.90
2023-11-24T17:57:05.993Z,23.48
2023-11-24T18:02:09.451Z,22.38
2023-11-24T18:07:13.991Z,22.67
2023-11-24T18:12:17.384Z,26.23
2023-11-24T18:17:19.628Z,27.50
2023-11-24T18:22:22.461Z,27.02
2023-11-24T18:27:25.234Z,23.05
2023-11-24T18:32:27.419Z,23.30
2023-11-24T18:37:30.245Z,23.17
2023-11-24T18:42:33.868Z,20.15
2023-11-24T18:47:36.397Z,17.25
2023-11-24T18:52:38.793Z,28.40
2023-11-24T18:57:44.328Z,30.85
2023-11-24T19:02:50.907Z,25.70
2023-11-24T19:07:53.134Z,30.63
2023-11-24T19:12:56.444Z,28.75
2023-11-24T19:17:59.159Z,27.13
2023-11-24T19:23:01.370Z,27.20
2023-11-24T19:28:03.819Z,25.65
2023-11-24T19:33:07.385Z,22.80
2023-11-24T19:38:09.501Z,21.10
2023-11-24T19:43:11.762Z,21.27
2023-11-24T19:48:14.362Z,23.23
2023-11-24T19:53:16.504Z,25.90
2023-11-24T19:58:18.732Z,20.65
2023-11-24T20:03:20.926Z,22.63
2023-11-24T20:08:23.172Z,24.23
2023-11-24T20:13:25.403Z,20.73
2023-11-24T20:18:27.824Z,21.63
2023-11-24T20:23:30.127Z,25.70
2023-11-24T20:28:33.194Z,20.48
2023-11-24T20:33:35.428Z,19.95
2023-11-24T20:38:37.578Z,18.75
2023-11-24T20:43:40.451Z,22.63
2023-11-24T20:48:44.830Z,20.13
2023-11-24T20:53:47.008Z,17.42
2023-11-24T20:58:49.149Z,18.08
2023-11-24T21:03:51.474Z,26.58
2023-11-24T21:09:00.752Z,22.25
2023-11-24T21:14:03.026Z,18.77
2023-11-24T21:19:05.680Z,19.40
2023-11-24T21:24:08.579Z,19.73
2023-11-24T21:29:10.791Z,21.27
2023-11-24T21:34:13.140Z,18.80
2023-11-24T21:39:15.537Z,22.27
2023-11-24T21:44:17.781Z,21.83
2023-11-24T21:49:20.018Z,25.67
2023-11-24T21:54:22.148Z,27.48
2023-11-24T21:59:24.276Z,25.85
2023-11-24T22:04:26.466Z,23.02
2023-11-24T22:09:28.690Z,21.73
2023-11-24T22:14:30.878Z,27.05
2023-11-24T22:19:36.296Z,26.33
2023-11-24T22:24:38.518Z,22.45
2023-11-24T22:29:51.279Z,20.48
2023-11-24T22:35:02.929Z,24.33
2023-11-24T22:40:08.520Z,25.20
2023-11-24T22:45:11.208Z,23.17
2023-11-24T22:50:13.433Z,24.17
2023-11-24T22:55:15.849Z,26.00
2023-11-24T23:00:51.496Z,21.00
2023-11-24T23:05:53.712Z,19.33
2023-11-24T23:10:55.804Z,22.20
2023-11-24T23:15:57.913Z,22.13
2023-11-24T23:21:01.052Z,24.38
2023-11-24T23:26:06.610Z,21.35
2023-11-24T23:31:13.406Z,24.65
2023-11-24T23:36:16.695Z,23.85
2023-11-24T23:41:18.863Z,23.45
2023-11-24T23:46:22.092Z,23.95
2023-11-24T23:51:24.410Z,26.15
2023-11-24T23:56:26.539Z,25.95
